Time;durP1;ratioP1;P1;durP2;ratioP2;P2;SDS_P1;SDS_P2;PMS_P1;PMS_P2;Temp;Humidity;BMP_temperature;BMP_pressure;BME280_temperature;BME280_humidity;BME280_pressure;Samples;Min_cycle;Max_cycle;Signal;HPM_P1;HPM_P2
2022/06/10 00:03:43;;;;;;;13.32;12.05;;;;;;;19.56;77.55;100156.51;3484328;81;21011;-83
2022/06/10 00:08:39;;;;;;;13.13;11.83;;;;;;;19.50;77.56;100152.75;3496496;80;20926;-83
2022/06/10 00:13:34;;;;;;;12.68;11.57;;;;;;;19.48;77.67;100163.80;3487135;81;21831;-83
2022/06/10 00:18:29;;;;;;;12.82;11.73;;;;;;;19.46;77.80;100162.95;3474550;81;21399;-83
2022/06/10 00:23:20;;;;;;;14.20;12.90;;;;;;;19.41;77.82;100166.59;3479709;81;21042;-83
2022/06/10 00:28:13;;;;;;;13.65;12.55;;;;;;;19.38;77.75;100166.66;3485345;81;21517;-83
2022/06/10 00:33:06;;;;;;;13.78;12.58;;;;;;;19.35;77.71;100173.36;3465522;81;21419;-83
2022/06/10 00:37:58;;;;;;;12.47;11.38;;;;;;;19.33;77.91;100173.83;3453811;80;21891;-83
2022/06/10 00:42:50;;;;;;;13.83;12.55;;;;;;;19.30;77.69;100171.30;3510325;79;20904;-83
2022/06/10 00:47:43;;;;;;;12.78;11.78;;;;;;;19.24;77.86;100176.73;3532170;79;20943;-83
2022/06/10 00:52:38;;;;;;;12.33;11.33;;;;;;;19.22;77.80;100184.67;3526354;80;21469;-83
2022/06/10 00:57:43;;;;;;;12.47;11.45;;;;;;;19.16;77.74;100181.36;3552379;80;20950;-83
2022/06/10 01:02:36;;;;;;;12.47;11.38;;;;;;;19.13;77.91;100177.48;3529919;79;21859;-83
2022/06/10 01:07:32;;;;;;;12.07;11.12;;;;;;;19.06;77.73;100182.04;3508107;79;20951;-83
2022/06/10 01:13:00;;;;;;;14.13;13.03;;;;;;;18.99;77.40;100176.09;3587524;80;20963;-83
2022/06/10 01:18:25;;;;;;;13.95;12.63;;;;;;;18.96;77.70;100182.75;3558186;79;21442;-83
2022/06/10 01:24:03;;;;;;;14.07;12.88;;;;;;;18.95;77.92;100177.52;3537983;79;20955;-83
2022/06/10 01:29:16;;;;;;;;;;;;;;;18.91;77.99;100182.47;3575842;79;21156;-83
2022/06/10 01:34:26;;;;;;;12.43;11.12;;;;;;;18.88;78.31;100203.14;3553569;79;20088;-83
2022/06/10 01:39:46;;;;;;;13.85;12.65;;;;;;;18.78;77.94;100230.57;3534731;79;21495;-83
2022/06/10 01:45:00;;;;;;;12.37;11.40;;;;;;;18.72;78.13;100247.86;3555901;79;20959;-83
2022/06/10 01:50:13;;;;;;;14.23;12.82;;;;;;;18.73;78.59;100240.37;3581874;79;21018;-83
2022/06/10 01:55:25;;;;;;;15.08;12.15;;;;;;;18.78;78.79;100224.88;3555655;79;21370;-83
2022/06/10 02:00:27;;;;;;;14.35;13.13;;;;;;;18.71;78.61;100235.58;3527163;79;20983;-83
2022/06/10 02:05:22;;;;;;;15.05;13.83;;;;;;;18.73;78.82;100223.27;3508401;80;21425;-83
2022/06/10 02:10:25;;;;;;;16.42;14.83;;;;;;;18.66;78.96;100218.12;3523796;79;20971;-83
2022/06/10 02:15:22;;;;;;;15.95;14.53;;;;;;;18.67;79.19;100215.92;3531281;79;20967;-83
2022/06/10 02:20:18;;;;;;;15.50;14.03;;;;;;;18.67;79.32;100227.77;3591185;79;21473;-82
2022/06/10 02:25:26;;;;;;;15.63;14.15;;;;;;;18.67;79.24;100241.37;3524011;79;20943;-83
2022/06/10 02:30:33;;;;;;;15.08;13.70;;;;;;;18.63;79.05;100223.46;3557254;80;20982;-83
2022/06/10 02:35:30;;;;;;;16.23;14.73;;;;;;;18.61;79.27;100234.48;3528028;79;21132;-82
2022/06/10 02:40:29;;;;;;;15.58;14.28;;;;;;;18.59;79.14;100238.07;3585288;79;20920;-82
2022/06/10 02:46:04;;;;;;;15.40;13.80;;;;;;;18.55;79.07;100234.65;3504551;80;21816;-83
2022/06/10 02:50:56;;;;;;;14.10;12.90;;;;;;;18.51;79.08;100242.21;3553655;80;20940;-82
2022/06/10 02:55:48;;;;;;;14.78;13.43;;;;;;;18.52;79.00;100245.23;3521777;80;20947;-82
2022/06/10 03:01:12;;;;;;;15.72;14.30;;;;;;;18.47;79.07;100245.79;3512269;80;20963;-83
2022/06/10 03:06:41;;;;;;;15.35;14.00;;;;;;;18.50;79.27;100248.36;3520460;80;20986;-82
2022/06/10 03:11:41;;;;;;;14.40;13.05;;;;;;;18.57;79.21;100252.58;3499214;80;22052;-82
2022/06/10 03:17:00;;;;;;;14.65;13.30;;;;;;;18.63;79.21;100261.64;3322384;85;21511;-82
2022/06/10 03:22:02;;;;;;;15.58;14.23;;;;;;;18.98;78.95;100267.87;3316447;85;20908;-82
2022/06/10 03:27:05;;;;;;;15.58;14.03;;;;;;;19.48;78.54;100276.70;3294580;85;21003;-83
2022/06/10 03:32:13;;;;;;;15.45;14.15;;;;;;;20.08;78.02;100282.95;3317173;85;21125;-83
2022/06/10 03:37:07;;;;;;;14.70;13.50;;;;;;;20.46;76.96;100279.64;3318694;85;20916;-83
2022/06/10 03:42:15;;;;;;;15.00;13.80;;;;;;;20.44;76.52;100286.71;3319467;84;22333;-83
2022/06/10 03:47:11;;;;;;;15.48;14.28;;;;;;;20.28;76.48;100299.97;3340070;85;21403;-83
2022/06/10 03:52:03;;;;;;;14.15;13.08;;;;;;;20.14;76.63;100314.45;3356763;81;20916;-83
2022/06/10 03:56:55;;;;;;;15.38;13.95;;;;;;;19.91;76.74;100328.77;3458453;81;20999;-83
2022/06/10 04:01:46;;;;;;;15.05;13.65;;;;;;;19.78;77.25;100334.38;3508927;81;22170;-83
2022/06/10 04:06:38;;;;;;;15.23;13.53;;;;;;;19.65;77.59;100335.56;3514048;81;21000;-83
2022/06/10 04:11:29;;;;;;;14.87;13.70;;;;;;;19.60;78.03;100338.34;3471381;81;20960;-82
2022/06/10 04:16:20;;;;;;;15.45;14.03;;;;;;;19.58;78.28;100338.84;3430295;81;20951;-83
2022/06/10 04:21:12;;;;;;;13.95;12.73;;;;;;;19.58;78.58;100339.27;3486323;81;20967;-83
2022/06/10 04:26:03;;;;;;;14.15;13.05;;;;;;;19.62;78.91;100347.53;3389407;81;21187;-83
2022/06/10 04:30:55;;;;;;;13.32;11.85;;;;;;;19.68;78.94;100353.95;3451650;81;20923;-83
2022/06/10 04:35:50;;;;;;;13.95;12.80;;;;;;;19.75;79.18;100359.50;3434480;81;20916;-83
2022/06/10 04:40:42;;;;;;;13.25;12.10;;;;;;;19.80;79.05;100369.48;3519855;80;20955;-83
2022/06/10 04:45:44;;;;;;;14.47;13.08;;;;;;;19.96;79.16;100374.33;3497935;80;20940;-83
2022/06/10 04:50:35;;;;;;;14.28;13.18;;;;;;;20.07;78.81;100373.59;3520768;80;22352;-83
2022/06/10 04:55:27;;;;;;;14.53;13.22;;;;;;;20.08;78.52;100380.59;3522646;80;20979;-83
2022/06/10 05:00:24;;;;;;;14.60;13.28;;;;;;;20.11;78.28;100384.47;3521829;80;21447;-83
2022/06/10 05:05:16;;;;;;;13.53;12.33;;;;;;;20.11;78.22;100387.11;3555647;80;20961;-83
2022/06/10 05:10:10;;;;;;;13.15;12.05;;;;;;;20.07;78.22;100384.16;3525920;80;20896;-83
2022/06/10 05:15:01;;;;;;;14.30;12.98;;;;;;;20.05;78.34;100388.61;3478150;80;21852;-83
2022/06/10 05:19:52;;;;;;;12.40;11.40;;;;;;;20.10;78.27;100395.95;3497940;80;20948;-83
2022/06/10 05:24:43;;;;;;;12.53;11.33;;;;;;;20.26;78.20;100397.69;3495926;80;21082;-83
2022/06/10 05:29:35;;;;;;;12.13;11.12;;;;;;;20.41;77.76;100405.64;3487535;80;21010;-83
2022/06/10 05:34:45;;;;;;;11.30;10.35;;;;;;;20.40;77.65;100406.54;3492387;80;20963;-83
2022/06/10 05:39:37;;;;;;;10.32;9.30;;;;;;;20.55;77.47;100419.78;3506089;80;21199;-84
2022/06/10 05:44:28;;;;;;;11.28;10.30;;;;;;;20.75;76.80;100421.86;3452591;80;21022;-83
2022/06/10 05:49:20;;;;;;;11.20;10.15;;;;;;;20.87;76.08;100428.09;3496775;80;20944;-83
2022/06/10 05:54:12;;;;;;;11.12;10.23;;;;;;;21.13;75.79;100425.95;3471481;80;21459;-83
2022/06/10 05:59:04;;;;;;;10.95;9.83;;;;;;;21.31;74.94;100428.47;3455239;80;20996;-83
2022/06/10 06:03:55;;;;;;;10.55;9.53;;;;;;;21.40;75.15;100429.09;3555624;80;21077;-83
2022/06/10 06:08:48;;;;;;;10.32;9.43;;;;;;;21.58;74.78;100442.20;3515655;80;21402;-83
2022/06/10 06:13:39;;;;;;;9.50;8.50;;;;;;;21.90;74.38;100439.80;3523739;80;21478;-83
2022/06/10 06:18:30;;;;;;;9.98;9.05;;;;;;;22.09;73.65;100446.66;3516727;80;21015;-83
2022/06/10 06:23:22;;;;;;;9.60;8.73;;;;;;;22.12;73.37;100449.64;3530666;80;21509;-83
2022/06/10 06:28:13;;;;;;;10.95;9.85;;;;;;;22.26;72.91;100459.28;3472358;80;21773;-83
2022/06/10 06:33:07;;;;;;;10.28;9.48;;;;;;;22.54;72.61;100466.28;3523659;80;20987;-83
2022/06/10 06:37:59;;;;;;;10.50;9.60;;;;;;;22.59;71.89;100473.56;3480812;80;20923;-83
2022/06/10 06:42:50;;;;;;;9.93;9.05;;;;;;;22.75;71.30;100476.52;3503252;80;20947;-83
2022/06/10 06:47:41;;;;;;;10.08;9.18;;;;;;;22.95;70.44;100477.11;3444825;80;20967;-83
2022/06/10 06:52:33;;;;;;;9.95;9.05;;;;;;;23.27;69.43;100493.12;3473521;80;21168;-84
2022/06/10 06:57:25;;;;;;;10.60;9.13;;;;;;;23.27;69.90;100487.83;3457781;80;20959;-83
2022/06/10 07:02:17;;;;;;;9.65;8.83;;;;;;;23.54;69.10;100484.99;3499269;80;21078;-84
2022/06/10 07:07:08;;;;;;;10.40;9.43;;;;;;;23.59;68.69;100483.88;3510829;80;20893;-84
2022/06/10 07:11:59;;;;;;;10.45;9.63;;;;;;;23.62;68.17;100486.00;3477243;80;21479;-83
2022/06/10 07:16:53;;;;;;;10.47;9.57;;;;;;;23.71;67.55;100494.91;3519784;80;20904;-83
2022/06/10 07:21:44;;;;;;;9.23;8.50;;;;;;;24.32;66.60;100500.31;3476299;80;21422;-84
2022/06/10 07:26:35;;;;;;;9.10;7.97;;;;;;;26.12;63.37;100506.98;3476437;80;22393;-84
2022/06/10 07:31:26;;;;;;;8.58;7.60;;;;;;;27.88;59.92;100502.75;3530197;80;22065;-84
2022/06/10 07:36:17;;;;;;;8.83;7.92;;;;;;;28.19;59.59;100509.86;3491887;80;20999;-85
2022/06/10 07:46:04;;;;;;;8.20;7.20;;;;;;;28.88;56.71;100520.33;3464995;79;20998;-86
2022/06/10 07:50:55;;;;;;;7.50;6.87;;;;;;;32.08;52.43;100516.66;3511106;79;21426;-85
2022/06/10 07:55:48;;;;;;;6.80;5.67;;;;;;;31.36;53.12;100520.19;3529971;79;20946;-85
2022/06/10 08:00:39;;;;;;;6.90;6.30;;;;;;;33.17;50.71;100522.06;3513484;79;20938;-85
2022/06/10 08:05:31;;;;;;;7.83;6.92;;;;;;;31.92;50.25;100520.48;3534759;79;21449;-85
2022/06/10 08:10:30;;;;;;;6.85;6.08;;;;;;;30.82;50.00;100521.83;3505886;79;21014;-85
2022/06/10 08:15:22;;;;;;;6.80;6.30;;;;;;;29.69;50.93;100528.60;3533599;79;20959;-85
2022/06/10 08:22:32;;;;;;;6.47;5.87;;;;;;;30.76;50.39;100536.55;3513630;79;21378;-85
2022/06/10 08:25:18;;;;;;;7.08;6.47;;;;;;;31.25;47.88;100540.27;3535912;79;20967;-86
2022/06/10 08:30:15;;;;;;;5.60;5.10;;;;;;;33.84;45.18;100541.73;3543256;79;21642;-84
2022/06/10 08:35:07;;;;;;;5.47;5.08;;;;;;;35.76;42.27;100530.84;3539091;79;21116;-84
2022/06/10 08:39:59;;;;;;;5.15;4.75;;;;;;;37.72;39.78;100534.59;3507062;79;45446;-84
2022/06/10 08:44:55;;;;;;;4.72;4.22;;;;;;;36.52;41.41;100535.45;3488456;81;20907;-83
2022/06/10 08:50:07;;;;;;;4.25;3.95;;;;;;;34.34;42.17;100539.30;3445282;82;20935;-83
2022/06/10 08:55:19;;;;;;;3.80;3.50;;;;;;;33.10;43.31;100551.29;3460162;82;21233;-83
2022/06/10 09:00:30;;;;;;;4.62;3.60;;;;;;;34.07;41.07;100549.23;3431410;82;20979;-83
2022/06/10 09:05:29;;;;;;;3.27;2.98;;;;;;;32.88;42.27;100550.81;3416903;82;20995;-83
2022/06/10 09:10:42;;;;;;;3.35;3.05;;;;;;;33.58;41.13;100549.64;3415738;82;20971;-83
2022/06/10 09:15:39;;;;;;;3.60;3.30;;;;;;;32.37;42.45;100549.37;3444596;82;20947;-82
2022/06/10 09:20:46;;;;;;;2.98;2.77;;;;;;;30.78;43.59;100558.76;3472917;80;21008;-82
2022/06/10 09:25:45;;;;;;;2.75;2.55;;;;;;;31.12;43.41;100563.98;3487383;81;20992;-83
2022/06/10 09:30:56;;;;;;;3.77;2.77;;;;;;;32.36;41.86;100562.96;3476216;81;20962;-83
2022/06/10 09:36:17;;;;;;;3.55;3.17;;;;;;;32.21;42.82;100564.52;3472725;80;21440;-82
2022/06/10 09:41:39;;;;;;;2.98;2.87;;;;;;;31.15;42.65;100582.53;3466874;80;20951;-84
2022/06/10 09:47:00;;;;;;;5.78;4.20;;;;;;;30.77;43.78;100583.41;3468201;81;21073;-84
2022/06/10 09:52:32;;;;;;;4.00;3.60;;;;;;;30.14;44.22;100591.72;3422308;81;20916;-85
2022/06/10 09:57:55;;;;;;;4.17;3.77;;;;;;;30.22;43.94;100600.58;3264614;85;21501;-84
2022/06/10 10:03:31;;;;;;;3.62;3.33;;;;;;;31.81;42.52;100601.08;3302690;84;20984;-85
2022/06/10 10:08:58;;;;;;;4.50;3.92;;;;;;;32.76;40.92;100601.59;3308294;84;20984;-84
2022/06/10 10:14:25;;;;;;;4.35;3.67;;;;;;;31.29;42.79;100598.16;3282140;85;21262;-84
2022/06/10 10:19:50;;;;;;;5.28;4.78;;;;;;;33.27;40.76;100594.42;3280013;86;21051;-84
2022/06/10 10:24:44;;;;;;;3.97;3.60;;;;;;;32.60;40.92;100596.05;3264765;85;21001;-84
2022/06/10 10:29:40;;;;;;;3.53;3.33;;;;;;;32.51;41.40;100612.88;3303893;84;21525;-85
2022/06/10 10:34:38;;;;;;;3.37;3.17;;;;;;;34.42;38.81;100611.02;3422902;81;21502;-84
2022/06/10 10:39:38;;;;;;;4.75;3.22;;;;;;;34.35;38.49;100620.63;3485977;81;21456;-84
2022/06/10 10:44:44;;;;;;;3.45;3.12;;;;;;;34.29;38.42;100626.55;3486200;79;20956;-84
2022/06/10 10:49:50;;;;;;;2.87;2.67;;;;;;;34.47;38.00;100619.58;3522426;80;20972;-84
2022/06/10 10:54:45;;;;;;;3.40;3.20;;;;;;;33.34;38.85;100629.31;3524421;80;20932;-84
2022/06/10 10:59:40;;;;;;;4.45;3.10;;;;;;;33.30;39.48;100629.17;3539757;80;20912;-84
2022/06/10 11:04:40;;;;;;;4.22;2.67;;;;;;;32.72;39.55;100629.23;3474822;80;21116;-84
2022/06/10 11:09:36;;;;;;;3.25;2.90;;;;;;;31.73;41.04;100637.09;3482773;80;21422;-83
2022/06/10 11:14:37;;;;;;;3.00;2.80;;;;;;;30.31;41.51;100646.03;3530075;80;21474;-83
2022/06/10 11:19:40;;;;;;;3.10;2.90;;;;;;;29.70;43.15;100638.84;3503639;80;20951;-83
2022/06/10 11:24:39;;;;;;;3.45;3.25;;;;;;;29.30;43.86;100645.38;3523972;80;22326;-83
2022/06/10 11:29:30;;;;;;;4.80;3.83;;;;;;;28.81;44.25;100643.40;3524212;80;21196;-83
2022/06/10 11:34:35;;;;;;;3.62;3.33;;;;;;;28.97;45.82;100640.66;3464984;80;21403;-83
2022/06/10 11:39:33;;;;;;;3.60;3.30;;;;;;;29.40;45.40;100638.00;3474811;80;20963;-83
2022/06/10 11:44:26;;;;;;;3.22;3.02;;;;;;;29.11;45.09;100632.27;3498788;79;21002;-83
2022/06/10 11:49:40;;;;;;;2.98;2.77;;;;;;;29.34;46.39;100634.88;3514545;79;20955;-83
2022/06/10 11:54:40;;;;;;;3.42;3.12;;;;;;;28.93;44.94;100632.92;3513086;79;21873;-83
2022/06/10 11:59:49;;;;;;;3.40;3.10;;;;;;;28.51;45.26;100631.39;3597378;79;21093;-83
2022/06/10 12:04:45;;;;;;;2.98;2.67;;;;;;;29.11;45.79;100632.27;3551261;79;20950;-83
2022/06/10 12:09:48;;;;;;;2.62;2.42;;;;;;;29.36;45.92;100639.16;3582888;79;21472;-83
2022/06/10 12:14:50;;;;;;;3.33;3.00;;;;;;;28.58;45.28;100639.92;3556813;79;21469;-83
2022/06/10 12:19:46;;;;;;;4.47;4.08;;;;;;;27.97;45.75;100649.19;3555613;79;21476;-83
2022/06/10 12:24:38;;;;;;;5.05;3.00;;;;;;;28.30;46.57;100648.22;3549889;79;20950;-83
2022/06/10 12:29:35;;;;;;;3.67;3.40;;;;;;;28.86;47.23;100650.67;3537876;79;20892;-83
2022/06/10 12:34:56;;;;;;;3.55;3.35;;;;;;;28.51;45.84;100644.76;3532218;79;20931;-83
2022/06/10 12:39:56;;;;;;;3.30;3.00;;;;;;;28.68;46.98;100642.44;3535279;79;20896;-83
2022/06/10 12:44:53;;;;;;;3.30;3.10;;;;;;;28.77;46.96;100655.25;3502460;79;21501;-83
2022/06/10 12:49:47;;;;;;;2.87;2.62;;;;;;;28.93;46.32;100652.99;3519526;81;20915;-83
2022/06/10 12:54:50;;;;;;;3.25;2.87;;;;;;;29.43;46.72;100653.03;3461463;81;20959;-83
2022/06/10 12:59:41;;;;;;;2.83;2.70;;;;;;;29.06;46.05;100652.61;3463678;81;20955;-83
2022/06/10 13:04:44;;;;;;;2.92;2.72;;;;;;;29.21;46.16;100654.38;3430184;81;22050;-83
2022/06/10 13:09:38;;;;;;;3.40;2.85;;;;;;;28.66;46.18;100651.88;3492326;81;21477;-83
2022/06/10 13:14:41;;;;;;;4.20;3.25;;;;;;;28.19;47.15;100663.99;3436406;81;21393;-83
2022/06/10 13:19:38;;;;;;;3.45;3.20;;;;;;;28.79;47.49;100656.02;3458768;81;20970;-83
2022/06/10 13:24:29;;;;;;;3.50;3.25;;;;;;;29.47;47.19;100643.84;3468302;81;20919;-83
2022/06/10 13:29:22;;;;;;;4.47;4.08;;;;;;;29.61;46.36;100654.53;3500276;81;21566;-83
2022/06/10 13:34:24;;;;;;;3.92;3.72;;;;;;;28.70;46.04;100654.75;3521853;81;21442;-83
2022/06/10 13:39:31;;;;;;;4.97;4.45;;;;;;;29.13;46.88;100639.23;3427622;81;20986;-82
2022/06/10 13:44:36;;;;;;;4.87;4.47;;;;;;;28.80;46.37;100652.39;3487841;80;21120;-82
2022/06/10 13:54:34;;;;;;;4.87;4.33;;;;;;;28.60;47.74;100652.72;3320873;84;21006;-83
2022/06/10 13:59:30;;;;;;;4.03;3.72;;;;;;;28.93;47.40;100659.69;3299738;84;21458;-83
2022/06/10 14:04:34;;;;;;;3.45;3.20;;;;;;;28.76;47.17;100666.92;3372172;84;21003;-83
2022/06/10 14:09:28;;;;;;;2.70;2.52;;;;;;;28.62;47.38;100660.20;3354955;83;21074;-83
2022/06/10 14:14:21;;;;;;;3.60;3.27;;;;;;;28.58;47.17;100669.34;3327559;84;21035;-83
2022/06/10 14:19:17;;;;;;;2.17;2.08;;;;;;;28.50;47.25;100669.28;3333070;84;20982;-83
2022/06/10 14:24:23;;;;;;;2.67;2.20;;;;;;;28.45;47.67;100670.51;3353955;83;21019;-83
2022/06/10 14:29:23;;;;;;;3.25;2.27;;;;;;;28.00;47.28;100678.41;3395924;81;20971;-83
2022/06/10 14:34:21;;;;;;;2.20;1.90;;;;;;;27.80;47.96;100673.31;3494002;81;20947;-83
2022/06/10 14:39:21;;;;;;;2.83;2.62;;;;;;;27.21;48.81;100676.45;3518802;81;20968;-83
2022/06/10 14:44:20;;;;;;;2.50;2.30;;;;;;;26.70;49.40;100680.89;3477344;80;20936;-83
2022/06/10 14:49:26;;;;;;;3.52;3.02;;;;;;;26.61;50.31;100692.44;3540195;80;21123;-83
2022/06/10 14:54:19;;;;;;;;;;;;;;;26.11;50.59;100699.73;3512109;80;20931;-83
2022/06/10 14:59:24;;;;;;;2.98;2.77;;;;;;;26.25;50.71;100697.25;3482880;80;20092;-83
2022/06/10 15:04:15;;;;;;;3.02;2.77;;;;;;;26.41;50.74;100702.70;3497477;80;21296;-83
2022/06/10 15:09:15;;;;;;;2.87;2.67;;;;;;;26.33;51.08;100715.56;3529964;80;20912;-83
2022/06/10 15:14:06;;;;;;;2.83;2.62;;;;;;;25.60;50.95;100725.20;3498780;80;21316;-83
2022/06/10 15:18:57;;;;;;;3.12;2.92;;;;;;;24.93;52.02;100737.83;3495129;80;21446;-83
2022/06/10 15:23:51;;;;;;;6.80;3.40;;;;;;;24.48;53.13;100741.45;3477886;80;20959;-83
2022/06/10 15:28:42;;;;;;;6.33;3.17;;;;;;;24.08;53.57;100749.20;3493516;80;21395;-82
2022/06/10 15:33:34;;;;;;;3.37;3.15;;;;;;;24.00;54.22;100765.03;3525476;80;21022;-82
2022/06/10 15:43:41;;;;;;;2.50;2.40;;;;;;;23.51;54.84;100769.02;3499680;80;20984;-82
2022/06/10 15:48:32;;;;;;;2.45;2.35;;;;;;;23.31;55.17;100770.59;3440334;81;20950;-82
2022/06/10 15:53:30;;;;;;;2.40;2.20;;;;;;;23.26;55.29;100779.64;3481651;80;20963;-82
2022/06/10 15:58:27;;;;;;;2.58;2.37;;;;;;;23.17;55.55;100793.61;3435889;80;20954;-82
2022/06/10 16:03:19;;;;;;;2.35;2.17;;;;;;;23.08;55.59;100801.03;3479095;81;21433;-82
2022/06/10 16:08:11;;;;;;;3.37;2.90;;;;;;;22.95;55.94;100797.89;3431195;80;20970;-82
2022/06/10 16:13:06;;;;;;;3.45;3.25;;;;;;;22.78;56.31;100808.56;3412452;80;20983;-82
2022/06/10 16:17:59;;;;;;;3.20;3.00;;;;;;;22.46;56.66;100808.26;3436493;80;21910;-82
2022/06/10 16:22:51;;;;;;;3.00;2.80;;;;;;;22.26;56.87;100818.11;3484171;80;21402;-82
2022/06/10 16:27:47;;;;;;;3.33;3.02;;;;;;;22.20;57.40;100823.60;3442181;81;22214;-83
2022/06/10 16:32:38;;;;;;;3.13;2.93;;;;;;;22.17;57.39;100817.06;3462187;80;21003;-82
2022/06/10 16:37:30;;;;;;;3.25;3.05;;;;;;;22.17;57.40;100816.59;3450879;80;20963;-82
2022/06/10 16:42:27;;;;;;;3.05;2.85;;;;;;;22.07;57.60;100818.66;3434243;81;22019;-82
2022/06/10 16:47:21;;;;;;;3.45;3.15;;;;;;;21.98;57.79;100816.29;3494664;79;21390;-82
2022/06/10 16:52:19;;;;;;;3.27;2.98;;;;;;;21.88;58.04;100815.67;3497339;79;21061;-82
2022/06/10 16:57:27;;;;;;;3.12;2.92;;;;;;;21.79;58.11;100817.72;3455525;81;20956;-82
2022/06/10 17:02:27;;;;;;;3.95;3.60;;;;;;;21.80;58.38;100828.27;3509752;79;20931;-82
2022/06/10 17:07:23;;;;;;;3.70;3.40;;;;;;;21.80;58.16;100826.05;3561714;79;21010;-83
2022/06/10 17:12:24;;;;;;;3.53;3.23;;;;;;;21.77;58.32;100819.55;3537137;79;20953;-82
2022/06/10 17:17:15;;;;;;;4.00;3.70;;;;;;;21.69;58.06;100823.27;3529622;79;21872;-82
2022/06/10 17:22:16;;;;;;;4.12;3.83;;;;;;;21.70;58.32;100819.70;3477785;79;20951;-82
2022/06/10 17:27:25;;;;;;;4.10;3.70;;;;;;;21.70;58.30;100818.84;3466972;81;20944;-82
2022/06/10 17:32:28;;;;;;;5.15;4.75;;;;;;;22.01;57.94;100821.47;3489451;79;20915;-82
2022/06/10 17:37:26;;;;;;;7.60;6.25;;;;;;;22.15;57.62;100824.19;3559325;79;20911;-82
2022/06/10 17:42:22;;;;;;;5.08;4.62;;;;;;;22.11;57.72;100817.27;3474059;79;21787;-82
2022/06/10 17:47:18;;;;;;;5.50;5.10;;;;;;;22.06;57.77;100816.91;3485793;80;20947;-82
2022/06/10 17:52:20;;;;;;;7.62;6.97;;;;;;;21.86;58.03;100822.79;3516296;80;20955;-82
2022/06/10 17:57:46;;;;;;;5.22;4.83;;;;;;;21.66;58.19;100833.93;3518081;80;20929;-82
2022/06/10 18:02:45;;;;;;;6.17;5.40;;;;;;;21.52;58.57;100829.47;3386820;81;21017;-82
2022/06/10 18:07:37;;;;;;;5.05;4.65;;;;;;;21.41;58.88;100824.86;3360528;82;21187;-82
2022/06/10 18:12:31;;;;;;;5.95;5.35;;;;;;;21.40;59.12;100827.11;3351802;83;20949;-82
2022/06/10 18:17:29;;;;;;;6.33;5.72;;;;;;;21.36;59.23;100828.97;3285994;83;21040;-82
2022/06/10 18:22:21;;;;;;;5.78;5.05;;;;;;;21.26;59.14;100840.22;3378487;82;20975;-82
2022/06/10 18:27:21;;;;;;;5.83;5.35;;;;;;;21.12;59.38;100844.98;3286873;81;21427;-82
2022/06/10 18:32:29;;;;;;;5.83;4.42;;;;;;;21.01;59.43;100843.06;3370604;82;21002;-82
2022/06/10 18:37:21;;;;;;;4.72;4.08;;;;;;;20.89;59.88;100847.75;3323539;85;20971;-82
2022/06/10 18:42:18;;;;;;;6.12;5.33;;;;;;;20.78;60.19;100862.97;3344233;85;21501;-82
2022/06/10 18:47:13;;;;;;;6.10;5.53;;;;;;;20.64;60.18;100866.38;3327415;85;20995;-82
2022/06/10 18:52:05;;;;;;;5.03;4.62;;;;;;;20.55;60.47;100868.77;3367789;85;22116;-82
2022/06/10 18:56:58;;;;;;;5.08;4.62;;;;;;;20.42;60.85;100874.73;3324954;85;21188;-82
2022/06/10 19:02:00;;;;;;;5.28;4.87;;;;;;;20.36;61.07;100878.38;3344879;85;21031;-82
2022/06/10 19:06:53;;;;;;;5.75;5.25;;;;;;;20.26;61.14;100882.56;3334590;85;21309;-82
2022/06/10 19:11:44;;;;;;;5.62;5.12;;;;;;;20.19;61.36;100902.50;3352304;80;20944;-82
2022/06/10 19:16:37;;;;;;;6.25;5.20;;;;;;;20.09;61.60;100897.44;3434199;80;20962;-82
2022/06/10 19:21:43;;;;;;;5.75;5.25;;;;;;;20.01;61.96;100908.13;3476192;80;21130;-82
2022/06/10 19:26:36;;;;;;;6.03;5.53;;;;;;;19.92;62.22;100917.53;3549243;80;20912;-82
2022/06/10 19:31:32;;;;;;;5.85;4.95;;;;;;;19.85;62.55;100923.82;3523237;80;20979;-82
2022/06/10 19:36:35;;;;;;;6.40;4.80;;;;;;;19.72;62.75;100929.73;3535186;80;20968;-82
2022/06/10 19:41:27;;;;;;;5.65;5.03;;;;;;;19.57;63.18;100922.97;3496321;80;21426;-82
2022/06/10 19:46:25;;;;;;;5.53;5.05;;;;;;;19.42;63.51;100930.24;3524460;80;22133;-82
2022/06/10 19:51:24;;;;;;;5.28;4.80;;;;;;;19.30;63.68;100940.98;3518013;80;20964;-82
2022/06/10 19:56:20;;;;;;;6.45;4.60;;;;;;;19.17;64.01;100951.27;3501370;80;21406;-82
2022/06/10 20:01:20;;;;;;;5.25;4.85;;;;;;;19.11;64.29;100950.05;3479506;80;20928;-82
2022/06/10 20:06:13;;;;;;;5.30;4.90;;;;;;;18.94;64.60;100951.17;3501770;80;20955;-82
2022/06/10 20:11:08;;;;;;;7.33;5.92;;;;;;;18.89;64.95;100950.36;3527999;80;21251;-82
2022/06/10 20:16:20;;;;;;;5.45;5.05;;;;;;;18.83;65.17;100945.16;3494752;80;21473;-82
2022/06/10 20:21:14;;;;;;;5.55;5.05;;;;;;;18.77;65.32;100938.18;3497941;80;21114;-82
2022/06/10 20:26:08;;;;;;;10.55;6.42;;;;;;;18.62;65.50;100947.62;3539889;80;20931;-82
2022/06/10 20:31:01;;;;;;;6.70;5.95;;;;;;;18.48;65.75;100946.47;3503862;80;21019;-82
2022/06/10 20:35:56;;;;;;;6.08;5.58;;;;;;;18.44;66.23;100950.03;3506730;80;21801;-82
2022/06/10 20:40:48;;;;;;;7.37;6.45;;;;;;;18.35;66.40;100945.74;3503759;80;20939;-82
2022/06/10 20:45:48;;;;;;;7.22;6.53;;;;;;;18.29;66.64;100942.70;3476043;80;20928;-81
2022/06/10 20:50:41;;;;;;;6.97;6.45;;;;;;;18.28;67.03;100944.93;3498760;80;20967;-82
2022/06/10 20:55:41;;;;;;;7.12;6.42;;;;;;;18.23;67.13;100945.42;3451599;80;21477;-81
2022/06/10 21:00:32;;;;;;;7.05;6.42;;;;;;;18.19;67.45;100950.30;3482694;80;21048;-81
2022/06/10 21:10:51;;;;;;;7.80;7.00;;;;;;;18.13;67.62;100954.30;3506914;80;20951;-81
2022/06/10 21:15:46;;;;;;;7.75;7.03;;;;;;;18.07;67.85;100955.69;3473080;80;20971;-81
2022/06/10 21:20:54;;;;;;;7.17;6.30;;;;;;;18.03;68.04;100957.94;3499314;80;20943;-81
2022/06/10 21:25:46;;;;;;;7.15;6.42;;;;;;;17.97;68.21;100956.66;3505940;80;22012;-81
2022/06/10 21:30:44;;;;;;;7.85;7.25;;;;;;;17.90;68.37;100953.20;3470535;80;21470;-82
2022/06/10 21:35:38;;;;;;;7.78;6.70;;;;;;;17.83;68.74;100958.96;3502084;80;20944;-82
2022/06/10 21:40:32;;;;;;;7.03;6.33;;;;;;;17.80;68.64;100960.75;3502232;80;20948;-82
2022/06/10 21:45:28;;;;;;;6.65;5.97;;;;;;;17.73;68.72;100967.80;3431226;80;21022;-82
2022/06/10 21:50:24;;;;;;;6.10;5.70;;;;;;;17.66;68.87;100966.98;3485788;80;22172;-82
2022/06/10 21:55:20;;;;;;;6.80;6.20;;;;;;;17.61;69.12;100974.48;3503187;80;20940;-82
2022/06/10 22:00:30;;;;;;;6.78;6.22;;;;;;;17.50;68.99;100969.30;3485454;80;20972;-82
2022/06/10 22:05:25;;;;;;;5.67;5.17;;;;;;;17.39;69.04;100968.52;3501059;80;20894;-82
2022/06/10 22:10:22;;;;;;;6.00;5.33;;;;;;;17.26;69.17;100959.83;3527321;80;21437;-82
2022/06/10 22:15:22;;;;;;;7.30;5.65;;;;;;;17.17;69.29;100949.38;3527278;80;21200;-82
2022/06/10 22:20:21;;;;;;;6.50;5.90;;;;;;;17.12;69.62;100948.12;3531940;80;21403;-82
2022/06/10 22:25:36;;;;;;;5.78;5.28;;;;;;;17.04;69.52;100941.58;3529929;80;21612;-82
2022/06/10 22:30:31;;;;;;;7.37;6.60;;;;;;;16.96;69.92;100951.27;3481359;80;21164;-82
2022/06/10 22:35:37;;;;;;;8.30;5.00;;;;;;;16.93;70.13;100951.28;3483816;80;21513;-82
2022/06/10 22:40:28;;;;;;;6.37;5.78;;;;;;;16.89;70.19;100960.93;3550080;80;20960;-82
2022/06/10 22:45:24;;;;;;;6.85;6.25;;;;;;;16.75;70.20;100963.58;3525957;80;20951;-82
2022/06/10 22:50:17;;;;;;;6.60;5.67;;;;;;;16.69;70.18;100957.06;3506876;80;20924;-82
2022/06/10 22:55:13;;;;;;;6.03;5.53;;;;;;;16.58;70.12;100960.18;3441976;82;20952;-82
2022/06/10 23:00:10;;;;;;;5.87;5.37;;;;;;;16.52;70.39;100961.50;3524054;80;21019;-82
2022/06/10 23:10:31;;;;;;;6.17;5.65;;;;;;;16.33;70.51;100973.38;3492795;80;20944;-82
2022/06/10 23:15:23;;;;;;;5.65;5.15;;;;;;;16.27;70.82;100975.99;3532745;80;21489;-82
2022/06/10 23:20:37;;;;;;;6.30;5.80;;;;;;;16.18;70.85;100981.27;3531566;80;20931;-82
2022/06/10 23:25:33;;;;;;;5.28;4.78;;;;;;;16.10;70.92;100977.80;3481279;82;20959;-82
2022/06/10 23:30:26;;;;;;;5.87;5.35;;;;;;;16.01;71.02;100984.80;3502728;80;21040;-82